Time;durP1;ratioP1;P1;durP2;ratioP2;P2;SDS_P1;SDS_P2;PMS_P1;PMS_P2;Temp;Humidity;BMP_temperature;BMP_pressure;BME280_temperature;BME280_humidity;BME280_pressure;Samples;Min_cycle;Max_cycle;Signal;HPM_P1;HPM_P2
2021/11/05 00:00:40;;;;;;;29.73;18.90;;;7.70;99.90;;;;;;5009843;28;20198;-67
2021/11/05 00:03:06;;;;;;;30.13;16.00;;;7.70;99.90;;;;;;5004907;28;20472;-67
2021/11/05 00:05:33;;;;;;;30.53;17.13;;;7.70;99.90;;;;;;4987632;28;20207;-68
2021/11/05 00:08:02;;;;;;;26.17;16.97;;;7.70;99.90;;;;;;4996955;28;20524;-67
2021/11/05 00:10:28;;;;;;;28.77;16.93;;;7.70;99.90;;;;;;5003207;28;20442;-68
2021/11/05 00:12:54;;;;;;;26.30;16.30;;;7.70;99.90;;;;;;5014023;28;20412;-68
2021/11/05 00:15:20;;;;;;;25.27;15.97;;;7.60;99.90;;;;;;5006334;28;20646;-68
2021/11/05 00:17:46;;;;;;;26.00;17.30;;;7.70;99.90;;;;;;5009205;28;20206;-67
2021/11/05 00:20:12;;;;;;;24.13;15.47;;;7.60;99.90;;;;;;5003693;28;20215;-68
2021/11/05 00:22:38;;;;;;;26.93;16.03;;;7.60;99.90;;;;;;5008649;28;20510;-68
2021/11/05 00:25:08;;;;;;;24.47;15.37;;;7.60;99.90;;;;;;5008424;28;20471;-67
2021/11/05 00:27:37;;;;;;;25.50;16.60;;;7.60;99.90;;;;;;5005364;28;20425;-68
2021/11/05 00:30:06;;;;;;;29.60;15.10;;;7.60;99.90;;;;;;5000959;28;20892;-68
2021/11/05 00:32:32;;;;;;;25.47;16.93;;;7.60;99.90;;;;;;5003436;28;20440;-68
2021/11/05 00:34:57;;;;;;;32.30;18.43;;;7.60;99.90;;;;;;5007047;28;20524;-67
2021/11/05 00:37:23;;;;;;;26.90;16.83;;;7.60;99.90;;;;;;5010691;28;20187;-67
2021/11/05 00:39:49;;;;;;;25.00;16.10;;;7.60;99.90;;;;;;5007157;28;20182;-67
2021/11/05 00:42:15;;;;;;;32.97;16.20;;;7.60;99.90;;;;;;5005548;28;20448;-67
2021/11/05 00:44:41;;;;;;;30.47;17.50;;;7.60;99.90;;;;;;5010163;28;20230;-67
2021/11/05 00:47:07;;;;;;;28.13;17.10;;;7.60;99.90;;;;;;4999605;28;20187;-68
2021/11/05 00:49:33;;;;;;;27.83;16.70;;;7.50;99.90;;;;;;5005053;28;20437;-67
2021/11/05 00:51:58;;;;;;;30.47;14.67;;;7.50;99.90;;;;;;5003994;28;20895;-67
2021/11/05 00:54:24;;;;;;;28.87;16.30;;;7.40;99.90;;;;;;5005514;28;20631;-67
2021/11/05 00:56:50;;;;;;;27.70;16.60;;;7.50;99.90;;;;;;5003051;28;20209;-68
2021/11/05 00:59:15;;;;;;;30.40;16.27;;;7.40;99.90;;;;;;5008196;28;20191;-68
2021/11/05 01:01:41;;;;;;;25.70;15.30;;;7.50;99.90;;;;;;5007939;28;20184;-67
2021/11/05 01:04:07;;;;;;;31.37;18.13;;;7.50;99.90;;;;;;5008079;28;20209;-68
2021/11/05 01:06:32;;;;;;;24.33;15.47;;;7.40;99.90;;;;;;5004504;28;20182;-67
2021/11/05 01:08:58;;;;;;;26.97;16.60;;;7.40;99.90;;;;;;4999980;28;20680;-68
2021/11/05 01:11:24;;;;;;;27.00;15.53;;;7.40;99.90;;;;;;5006130;28;20485;-68
2021/11/05 01:13:50;;;;;;;24.57;14.60;;;7.40;99.90;;;;;;5001324;28;20175;-68
2021/11/05 01:16:15;;;;;;;33.17;17.70;;;7.40;99.90;;;;;;5006694;28;20273;-68
2021/11/05 01:18:41;;;;;;;29.80;15.60;;;7.50;99.90;;;;;;5007457;28;20175;-68
2021/11/05 01:21:07;;;;;;;28.37;17.40;;;7.40;99.90;;;;;;5011813;28;20624;-68
2021/11/05 01:23:33;;;;;;;29.10;15.93;;;7.50;99.90;;;;;;4999299;28;20563;-68
2021/11/05 01:25:59;;;;;;;31.47;15.97;;;7.40;99.90;;;;;;5009051;28;20515;-68
2021/11/05 01:28:25;;;;;;;29.40;15.00;;;7.40;99.90;;;;;;5008185;28;20181;-67
2021/11/05 01:30:50;;;;;;;31.03;16.47;;;7.40;99.90;;;;;;5006794;28;20631;-67
2021/11/05 01:33:16;;;;;;;24.00;16.17;;;7.50;99.90;;;;;;5008540;28;20258;-68
2021/11/05 01:35:43;;;;;;;29.27;16.50;;;7.40;99.90;;;;;;5005143;28;20186;-67
2021/11/05 01:38:09;;;;;;;23.97;14.33;;;7.40;99.90;;;;;;5008308;28;20499;-67
2021/11/05 01:40:37;;;;;;;26.83;14.70;;;7.40;99.90;;;;;;5005583;28;20905;-68
2021/11/05 01:43:04;;;;;;;24.80;14.23;;;7.40;99.90;;;;;;5008189;28;20175;-68
2021/11/05 01:45:31;;;;;;;20.13;13.87;;;7.30;99.90;;;;;;5004279;28;20450;-68
2021/11/05 01:47:57;;;;;;;23.87;14.33;;;7.40;99.90;;;;;;5002086;28;20507;-68
2021/11/05 01:50:23;;;;;;;24.17;15.10;;;7.40;99.90;;;;;;5006965;28;20516;-67
2021/11/05 01:52:50;;;;;;;24.10;14.50;;;7.40;99.90;;;;;;5010630;28;21039;-67
2021/11/05 01:55:16;;;;;;;24.77;15.73;;;7.40;99.90;;;;;;5003721;28;20197;-67
2021/11/05 01:57:43;;;;;;;23.10;14.30;;;7.40;99.90;;;;;;5002840;28;20821;-67
2021/11/05 02:00:11;;;;;;;24.70;15.47;;;7.40;99.90;;;;;;4999733;28;20666;-68
2021/11/05 02:02:37;;;;;;;22.77;14.90;;;7.40;99.90;;;;;;5004989;28;20775;-67
2021/11/05 02:05:03;;;;;;;21.30;13.40;;;7.50;99.90;;;;;;5006792;28;20458;-68
2021/11/05 02:07:33;;;;;;;20.90;13.90;;;7.50;99.90;;;;;;5005718;28;20174;-67
2021/11/05 02:10:03;;;;;;;22.00;14.37;;;7.50;99.90;;;;;;5009699;28;20920;-68
2021/11/05 02:12:30;;;;;;;26.50;14.60;;;7.40;99.90;;;;;;5000932;28;20430;-68
2021/11/05 02:14:58;;;;;;;23.63;14.00;;;7.40;99.90;;;;;;5005392;28;20437;-68
2021/11/05 02:17:24;;;;;;;22.93;13.83;;;7.40;99.90;;;;;;4999746;28;20887;-68
2021/11/05 02:19:51;;;;;;;23.90;15.63;;;7.50;99.90;;;;;;5009762;28;20452;-67
2021/11/05 02:22:16;;;;;;;19.13;13.20;;;7.50;99.90;;;;;;5007149;28;20919;-68
2021/11/05 02:24:42;;;;;;;17.80;11.63;;;7.40;99.90;;;;;;5010963;28;20454;-68
2021/11/05 02:27:08;;;;;;;22.83;12.73;;;7.40;99.90;;;;;;5002122;28;20261;-68
2021/11/05 02:29:34;;;;;;;17.10;11.77;;;7.50;99.90;;;;;;5004468;28;20179;-68
2021/11/05 02:32:00;;;;;;;20.20;13.40;;;7.40;99.90;;;;;;5004600;28;20198;-68
2021/11/05 02:34:27;;;;;;;24.53;14.67;;;7.40;99.90;;;;;;5010355;28;20178;-76
2021/11/05 02:36:53;;;;;;;23.33;12.50;;;7.50;99.90;;;;;;5010258;28;20460;-76
2021/11/05 02:39:19;;;;;;;20.57;13.30;;;7.50;99.90;;;;;;5011061;28;20425;-76
2021/11/05 02:41:47;;;;;;;19.97;12.60;;;7.40;99.90;;;;;;5006885;28;20524;-76
2021/11/05 02:44:13;;;;;;;19.73;13.40;;;7.40;99.90;;;;;;5013650;28;20174;-76
2021/11/05 02:46:39;;;;;;;17.57;10.53;;;7.40;99.90;;;;;;5008675;28;20757;-76
2021/11/05 02:49:07;;;;;;;19.17;12.50;;;7.40;99.90;;;;;;5002639;28;20456;-76
2021/11/05 02:51:34;;;;;;;15.53;11.53;;;7.40;99.90;;;;;;5019442;28;20923;-76
2021/11/05 02:54:01;;;;;;;17.27;11.70;;;7.40;99.90;;;;;;5006193;28;20433;-77
2021/11/05 02:56:27;;;;;;;20.60;12.50;;;7.30;99.90;;;;;;5005352;28;20434;-76
2021/11/05 02:58:53;;;;;;;17.20;11.90;;;7.30;99.90;;;;;;5009387;28;20432;-76
2021/11/05 03:01:19;;;;;;;23.20;12.93;;;7.30;99.90;;;;;;5010892;28;20202;-76
2021/11/05 03:03:45;;;;;;;17.90;12.00;;;7.30;99.90;;;;;;5007331;28;20178;-76
2021/11/05 03:06:11;;;;;;;20.07;12.03;;;7.30;99.90;;;;;;5012011;28;20456;-76
2021/11/05 03:08:37;;;;;;;17.17;11.97;;;7.30;99.90;;;;;;5006053;28;21013;-76
2021/11/05 03:11:03;;;;;;;23.13;12.80;;;7.30;99.90;;;;;;5013625;28;20210;-76
2021/11/05 03:13:29;;;;;;;18.97;12.30;;;7.20;99.90;;;;;;5011758;28;20440;-76
2021/11/05 03:15:54;;;;;;;17.60;11.83;;;7.20;99.90;;;;;;5005044;28;20197;-76
2021/11/05 03:18:20;;;;;;;19.20;10.80;;;7.20;99.90;;;;;;5006142;28;20202;-76
2021/11/05 03:20:47;;;;;;;12.93;9.70;;;7.20;99.90;;;;;;5013803;28;20189;-76
2021/11/05 03:23:14;;;;;;;16.83;10.80;;;7.20;99.90;;;;;;5007743;28;20223;-76
2021/11/05 03:25:40;;;;;;;13.30;10.60;;;7.10;99.90;;;;;;5011955;28;20496;-76
2021/11/05 03:28:06;;;;;;;13.67;9.73;;;7.10;99.90;;;;;;5005546;28;20433;-76
2021/11/05 03:30:32;;;;;;;17.23;11.43;;;7.00;99.90;;;;;;5008599;28;20490;-76
2021/11/05 03:32:58;;;;;;;16.63;9.60;;;7.00;99.90;;;;;;5008915;28;20426;-76
2021/11/05 03:35:24;;;;;;;16.70;10.87;;;7.00;99.90;;;;;;5008364;28;20437;-76
2021/11/05 03:37:50;;;;;;;12.50;9.30;;;7.00;99.90;;;;;;5010624;28;20869;-77
2021/11/05 03:40:16;;;;;;;13.00;9.50;;;7.00;99.90;;;;;;5012101;28;20503;-76
2021/11/05 03:42:48;;;;;;;13.53;10.00;;;7.00;99.90;;;;;;5008892;28;20178;-76
2021/11/05 03:45:15;;;;;;;15.27;10.53;;;7.00;99.90;;;;;;5003383;28;20465;-76
2021/11/05 03:47:41;;;;;;;13.50;9.83;;;6.90;99.90;;;;;;5005848;28;20821;-76
2021/11/05 03:50:07;;;;;;;15.00;9.47;;;6.90;99.90;;;;;;5007745;28;20512;-76
2021/11/05 03:52:33;;;;;;;13.77;9.70;;;6.90;99.90;;;;;;5010104;28;20202;-76
2021/11/05 03:54:59;;;;;;;12.07;9.97;;;6.80;99.90;;;;;;5005232;28;20421;-76
2021/11/05 03:57:25;;;;;;;12.60;9.17;;;6.80;99.90;;;;;;5011600;28;20464;-76
2021/11/05 03:59:50;;;;;;;17.60;8.37;;;6.70;99.90;;;;;;5008554;28;20193;-76
2021/11/05 04:02:16;;;;;;;12.60;8.87;;;6.70;99.90;;;;;;5008954;28;20187;-76
2021/11/05 04:04:42;;;;;;;11.87;9.23;;;6.70;99.90;;;;;;5004048;28;20262;-76
2021/11/05 04:07:07;;;;;;;15.03;8.83;;;6.60;99.90;;;;;;5000424;28;20311;-76
2021/11/05 04:09:33;;;;;;;13.80;9.20;;;6.60;99.90;;;;;;5006627;28;20271;-76
2021/11/05 04:11:59;;;;;;;13.87;9.50;;;6.60;99.90;;;;;;5011439;28;20630;-76
2021/11/05 04:14:24;;;;;;;11.90;9.60;;;6.60;99.90;;;;;;5008091;28;20172;-76
2021/11/05 04:16:50;;;;;;;12.10;8.10;;;6.60;99.90;;;;;;5007264;28;20186;-76
2021/11/05 04:19:16;;;;;;;16.80;9.67;;;6.60;99.90;;;;;;5005494;28;20180;-76
2021/11/05 04:21:41;;;;;;;13.50;9.60;;;6.50;99.90;;;;;;5000664;28;20485;-76
2021/11/05 04:24:07;;;;;;;11.57;9.20;;;6.60;99.90;;;;;;5008768;28;20175;-76
2021/11/05 04:26:34;;;;;;;10.53;9.13;;;6.50;99.90;;;;;;5012696;28;20217;-76
2021/11/05 04:29:00;;;;;;;16.10;9.30;;;6.50;99.90;;;;;;5003771;28;20439;-76
2021/11/05 04:31:26;;;;;;;12.83;9.30;;;6.50;99.90;;;;;;5009763;28;20429;-76
2021/11/05 04:33:51;;;;;;;14.80;9.00;;;6.50;99.90;;;;;;5009270;28;20273;-76
2021/11/05 04:36:18;;;;;;;11.20;8.27;;;6.50;99.90;;;;;;5005517;28;20182;-76
2021/11/05 04:38:44;;;;;;;15.20;9.93;;;6.50;99.90;;;;;;5009557;28;20175;-76
2021/11/05 04:41:10;;;;;;;15.40;9.77;;;6.50;99.90;;;;;;5004504;28;20432;-76
2021/11/05 04:43:35;;;;;;;12.10;9.50;;;6.50;99.90;;;;;;5008086;28;20446;-76
2021/11/05 04:46:01;;;;;;;12.50;9.83;;;6.60;99.90;;;;;;5004548;28;20211;-76
2021/11/05 04:48:27;;;;;;;16.93;9.63;;;6.60;99.90;;;;;;5004895;28;20175;-76
2021/11/05 04:50:53;;;;;;;16.07;11.10;;;6.60;99.90;;;;;;5009266;28;20523;-76
2021/11/05 04:53:19;;;;;;;18.30;11.83;;;6.70;99.90;;;;;;5010062;28;20183;-76
2021/11/05 04:55:44;;;;;;;17.53;11.00;;;6.70;99.90;;;;;;5006802;28;20441;-76
2021/11/05 04:58:10;;;;;;;17.53;12.10;;;6.80;99.90;;;;;;5001943;28;20197;-76
2021/11/05 05:00:36;;;;;;;23.23;12.57;;;6.90;99.90;;;;;;5008569;28;20641;-76
2021/11/05 05:03:02;;;;;;;17.53;11.80;;;6.90;99.90;;;;;;5013183;28;20237;-76
2021/11/05 05:05:28;;;;;;;14.80;11.00;;;7.00;99.90;;;;;;5004926;28;20217;-76
2021/11/05 05:07:53;;;;;;;15.07;11.20;;;7.00;99.90;;;;;;5006204;28;20461;-76
2021/11/05 05:10:20;;;;;;;18.50;11.27;;;7.00;99.90;;;;;;5006730;28;20197;-76
2021/11/05 05:12:45;;;;;;;19.27;11.60;;;7.10;99.90;;;;;;5005351;28;20830;-76
2021/11/05 05:15:13;;;;;;;18.60;10.60;;;7.10;99.90;;;;;;5009303;28;20460;-76
2021/11/05 05:17:40;;;;;;;19.17;11.40;;;7.00;99.90;;;;;;5000138;28;20430;-76
2021/11/05 05:20:09;;;;;;;17.63;11.07;;;7.20;99.90;;;;;;5003378;28;20436;-76
2021/11/05 05:22:36;;;;;;;14.83;11.00;;;7.20;99.90;;;;;;5000224;28;20808;-76
2021/11/05 05:25:04;;;;;;;12.37;9.60;;;7.20;99.90;;;;;;5003266;28;20467;-76
2021/11/05 05:27:29;;;;;;;16.50;10.33;;;7.20;99.90;;;;;;4997673;28;20434;-76
2021/11/05 05:29:56;;;;;;;17.87;10.37;;;7.20;99.90;;;;;;5005896;28;20439;-76
2021/11/05 05:32:22;;;;;;;17.50;10.53;;;7.20;99.90;;;;;;5001305;28;20175;-76
2021/11/05 05:34:48;;;;;;;17.70;10.60;;;7.20;99.90;;;;;;5003166;28;20921;-75
2021/11/05 05:37:13;;;;;;;14.10;9.00;;;7.30;99.90;;;;;;4998505;28;20600;-76
2021/11/05 05:39:39;;;;;;;16.77;10.83;;;7.30;99.90;;;;;;5005162;28;20175;-76
2021/11/05 05:42:05;;;;;;;15.83;10.20;;;7.40;99.90;;;;;;5001740;28;20183;-76
2021/11/05 05:44:31;;;;;;;17.53;11.30;;;7.40;99.90;;;;;;5000313;28;21880;-76
2021/11/05 05:46:57;;;;;;;11.70;8.70;;;7.40;99.90;;;;;;4997518;28;20516;-76
2021/11/05 05:49:23;;;;;;;15.80;10.20;;;7.30;99.90;;;;;;5004633;28;20437;-76
2021/11/05 05:51:48;;;;;;;13.10;9.57;;;7.30;99.90;;;;;;5004986;28;20183;-76
2021/11/05 05:54:14;;;;;;;13.87;10.00;;;7.30;99.90;;;;;;5004635;28;20432;-76
2021/11/05 05:56:40;;;;;;;13.60;9.20;;;7.30;99.90;;;;;;4995683;28;20214;-75
2021/11/05 05:59:05;;;;;;;15.87;9.87;;;7.40;99.90;;;;;;4997047;28;20241;-75
2021/11/05 06:01:31;;;;;;;17.07;10.47;;;7.30;99.90;;;;;;4999618;28;20190;-76
2021/11/05 06:04:00;;;;;;;18.00;9.63;;;7.30;99.90;;;;;;4997445;28;20205;-76
2021/11/05 06:06:29;;;;;;;16.23;10.40;;;7.30;99.90;;;;;;4995257;28;20278;-76
2021/11/05 06:08:55;;;;;;;17.43;9.20;;;7.20;99.90;;;;;;4997980;28;20433;-76
2021/11/05 06:11:22;;;;;;;14.23;9.13;;;7.20;99.90;;;;;;4998973;28;20524;-76
2021/11/05 06:13:47;;;;;;;12.20;8.80;;;7.20;99.90;;;;;;4998077;28;21391;-76
2021/11/05 06:16:13;;;;;;;12.00;8.57;;;7.20;99.90;;;;;;5000506;28;20442;-76
2021/11/05 06:18:39;;;;;;;13.50;9.50;;;7.20;99.90;;;;;;5004097;28;20181;-77
2021/11/05 06:21:05;;;;;;;13.70;8.90;;;7.10;99.90;;;;;;5009518;28;20485;-76
2021/11/05 06:23:31;;;;;;;10.40;7.47;;;7.00;99.90;;;;;;4998861;28;20182;-77
2021/11/05 06:25:58;;;;;;;13.50;8.20;;;7.00;99.90;;;;;;5005159;28;20644;-76
2021/11/05 06:28:25;;;;;;;10.07;7.77;;;6.90;99.90;;;;;;5004538;28;20469;-76
2021/11/05 06:30:51;;;;;;;11.03;8.07;;;6.80;99.90;;;;;;5003216;28;20430;-76
2021/11/05 06:33:18;;;;;;;9.27;7.83;;;6.80;99.90;;;;;;5003470;28;20931;-76
2021/11/05 06:35:45;;;;;;;10.53;7.70;;;6.70;99.90;;;;;;5001830;28;20445;-76
2021/11/05 06:38:10;;;;;;;10.57;8.10;;;6.70;99.90;;;;;;5003547;28;20429;-76
2021/11/05 06:40:36;;;;;;;10.77;8.13;;;6.70;99.90;;;;;;5007803;28;20438;-76
2021/11/05 06:43:02;;;;;;;10.07;7.43;;;6.60;99.90;;;;;;4993123;28;20183;-76
2021/11/05 06:45:29;;;;;;;14.43;8.60;;;6.60;99.90;;;;;;4994755;28;20221;-75
2021/11/05 06:47:55;;;;;;;10.90;8.33;;;6.60;99.90;;;;;;4986526;28;20175;-76
2021/11/05 06:50:21;;;;;;;11.87;8.50;;;6.50;99.90;;;;;;5003596;28;21064;-76
2021/11/05 06:52:47;;;;;;;11.20;8.23;;;6.50;99.90;;;;;;4996922;28;20430;-76
2021/11/05 06:55:14;;;;;;;10.20;7.57;;;6.50;99.90;;;;;;4992071;28;20526;-76
2021/11/05 06:57:40;;;;;;;10.67;7.83;;;6.40;99.90;;;;;;5006048;28;20484;-76
2021/11/05 07:00:09;;;;;;;12.50;8.13;;;6.50;99.90;;;;;;5007753;28;20447;-76
2021/11/05 07:02:40;;;;;;;10.87;8.67;;;6.40;99.90;;;;;;5005574;28;20441;-76
2021/11/05 07:05:07;;;;;;;10.53;7.50;;;6.50;99.90;;;;;;5011527;28;20842;-76
2021/11/05 07:07:33;;;;;;;11.57;7.83;;;6.40;99.90;;;;;;5003431;28;20466;-76
2021/11/05 07:09:58;;;;;;;11.40;9.40;;;6.40;99.90;;;;;;5010768;28;20397;-76
2021/11/05 07:12:24;;;;;;;10.20;7.50;;;6.40;99.90;;;;;;4997085;28;20324;-76
2021/11/05 07:14:50;;;;;;;12.30;6.60;;;6.50;99.90;;;;;;4994881;28;20187;-76
2021/11/05 07:17:15;;;;;;;12.33;8.37;;;6.50;99.90;;;;;;5007276;28;20651;-76
2021/11/05 07:19:41;;;;;;;12.57;7.80;;;6.50;99.90;;;;;;5000796;28;20192;-76
2021/11/05 07:22:07;;;;;;;13.50;8.07;;;6.60;99.90;;;;;;5011962;28;20657;-76
2021/11/05 07:24:39;;;;;;;15.67;8.70;;;6.70;99.90;;;;;;5011476;28;20640;-76
2021/11/05 07:27:05;;;;;;;11.80;9.00;;;6.80;99.90;;;;;;5008187;28;20487;-76
2021/11/05 07:29:32;;;;;;;9.97;7.60;;;6.90;99.90;;;;;;5009190;28;20428;-76
2021/11/05 07:32:00;;;;;;;17.83;9.87;;;7.00;99.90;;;;;;5016692;28;20469;-76
2021/11/05 07:34:32;;;;;;;10.70;7.77;;;7.10;99.90;;;;;;5009841;28;20452;-76
2021/11/05 07:37:03;;;;;;;14.87;9.97;;;7.20;99.90;;;;;;5011911;28;20414;-76
2021/11/05 07:39:29;;;;;;;15.13;10.53;;;7.30;99.90;;;;;;5012064;28;20867;-76
2021/11/05 07:41:55;;;;;;;13.70;8.60;;;7.40;99.90;;;;;;5009639;28;20441;-76
2021/11/05 07:44:21;;;;;;;11.73;8.47;;;7.40;99.90;;;;;;5005295;28;20811;-76
2021/11/05 07:46:47;;;;;;;13.90;8.77;;;7.50;99.90;;;;;;5015003;28;20405;-76
2021/11/05 07:49:15;;;;;;;14.13;9.10;;;7.50;99.90;;;;;;5008475;28;20480;-76
2021/11/05 07:51:40;;;;;;;14.27;10.00;;;7.60;99.90;;;;;;5010409;28;20471;-76
2021/11/05 07:54:07;;;;;;;14.70;9.20;;;7.70;99.90;;;;;;5006858;28;20476;-76
2021/11/05 07:56:34;;;;;;;12.57;9.30;;;7.60;99.90;;;;;;4997002;28;20185;-76
2021/11/05 07:59:00;;;;;;;16.20;9.70;;;7.70;99.90;;;;;;5005686;28;20445;-76
2021/11/05 08:01:26;;;;;;;14.37;9.77;;;7.70;99.90;;;;;;5009060;28;20456;-76
2021/11/05 08:03:52;;;;;;;16.53;8.93;;;7.70;99.90;;;;;;5008996;28;20446;-76
2021/11/05 08:06:17;;;;;;;12.40;8.57;;;7.70;99.90;;;;;;5000138;28;20203;-76
2021/11/05 08:08:43;;;;;;;12.67;8.33;;;7.70;99.90;;;;;;5011011;28;20490;-75
2021/11/05 08:11:10;;;;;;;13.37;9.10;;;7.70;99.90;;;;;;5007288;28;20171;-77
2021/11/05 08:13:36;;;;;;;19.80;8.37;;;7.80;99.90;;;;;;5002843;28;20174;-75
2021/11/05 08:16:02;;;;;;;12.47;8.77;;;7.80;99.90;;;;;;5005978;28;20500;-75
2021/11/05 08:18:28;;;;;;;12.67;9.67;;;7.90;99.90;;;;;;5008588;28;20186;-75
2021/11/05 08:20:54;;;;;;;9.03;7.43;;;7.90;99.90;;;;;;5001995;28;20738;-75
2021/11/05 08:23:20;;;;;;;9.70;7.93;;;7.90;99.90;;;;;;5009067;28;20257;-75
2021/11/05 08:25:47;;;;;;;11.03;7.70;;;8.00;99.90;;;;;;5006411;28;20457;-75
2021/11/05 08:28:17;;;;;;;10.70;7.60;;;8.00;99.90;;;;;;5006259;28;20433;-75
2021/11/05 08:30:44;;;;;;;8.47;7.00;;;8.10;99.90;;;;;;5004341;28;20484;-75
2021/11/05 08:33:10;;;;;;;12.90;8.17;;;8.20;99.90;;;;;;5017380;28;20512;-75
2021/11/05 08:35:36;;;;;;;12.20;7.50;;;8.30;99.90;;;;;;5011292;28;20529;-75
2021/11/05 08:38:04;;;;;;;12.53;6.40;;;8.40;99.90;;;;;;5007726;28;21051;-75
2021/11/05 08:40:30;;;;;;;13.27;7.87;;;8.50;99.90;;;;;;5005049;28;20445;-75
2021/11/05 08:42:57;;;;;;;13.93;7.50;;;8.60;99.90;;;;;;4998199;28;20444;-75
2021/11/05 08:45:23;;;;;;;11.57;6.47;;;8.70;99.90;;;;;;5003510;28;20967;-75
2021/11/05 08:47:49;;;;;;;9.70;6.90;;;8.90;99.90;;;;;;5002763;28;20429;-75
2021/11/05 08:50:25;;;;;;;10.93;6.93;;;9.00;99.90;;;;;;5006186;28;20186;-75
2021/11/05 08:52:51;;;;;;;9.40;6.73;;;8.90;99.90;;;;;;5004698;28;20251;-76
2021/11/05 08:55:17;;;;;;;7.40;6.60;;;9.00;99.90;;;;;;5008414;28;20425;-75
2021/11/05 08:57:44;;;;;;;8.70;6.43;;;9.00;99.90;;;;;;5005574;28;20429;-75
2021/11/05 09:00:17;;;;;;;11.23;7.47;;;8.90;99.90;;;;;;5004938;28;20437;-76
2021/11/05 09:02:44;;;;;;;10.80;6.53;;;8.90;99.90;;;;;;5010215;28;20437;-75
2021/11/05 09:05:10;;;;;;;11.53;6.63;;;9.00;99.90;;;;;;5011868;28;20457;-75
2021/11/05 09:07:36;;;;;;;7.67;6.27;;;9.10;99.90;;;;;;5005321;28;20441;-76
2021/11/05 09:10:07;;;;;;;11.67;7.80;;;9.10;99.90;;;;;;5005630;28;20442;-75
2021/11/05 09:12:33;;;;;;;7.87;6.00;;;9.10;99.90;;;;;;5006955;28;20206;-76
2021/11/05 09:14:59;;;;;;;7.60;6.07;;;9.10;99.90;;;;;;5008782;28;20429;-76
2021/11/05 09:17:24;;;;;;;9.20;5.90;;;9.20;99.90;;;;;;5001212;28;20182;-75
2021/11/05 09:19:50;;;;;;;8.73;6.40;;;9.20;99.90;;;;;;5005714;28;20429;-76
2021/11/05 09:22:17;;;;;;;7.40;6.17;;;9.30;99.90;;;;;;5004674;28;20175;-75
2021/11/05 09:24:43;;;;;;;6.53;5.90;;;9.30;99.90;;;;;;5013516;28;20756;-76
2021/11/05 09:27:10;;;;;;;5.20;4.70;;;9.30;99.90;;;;;;5002505;28;20494;-76
2021/11/05 09:29:37;;;;;;;5.73;5.10;;;9.30;99.90;;;;;;5007195;28;20553;-75
2021/11/05 09:32:05;;;;;;;6.63;5.37;;;9.40;99.90;;;;;;5005777;28;21260;-75
2021/11/05 09:34:31;;;;;;;6.63;4.77;;;9.40;99.90;;;;;;5004080;28;20429;-75
2021/11/05 09:37:00;;;;;;;5.10;4.23;;;9.40;99.90;;;;;;5006968;28;20421;-75
2021/11/05 09:39:28;;;;;;;9.00;4.80;;;9.50;99.90;;;;;;4997873;28;20426;-76
2021/11/05 09:41:53;;;;;;;8.20;4.90;;;9.40;99.90;;;;;;4996561;28;20426;-75
2021/11/05 09:44:19;;;;;;;5.47;4.97;;;9.40;99.90;;;;;;5000667;28;20492;-75
2021/11/05 09:46:45;;;;;;;7.23;4.93;;;9.50;99.90;;;;;;4996373;28;20221;-76
2021/11/05 09:49:11;;;;;;;7.10;4.33;;;9.50;99.90;;;;;;5004558;28;20417;-76
2021/11/05 09:51:37;;;;;;;5.13;3.87;;;9.50;99.90;;;;;;5009634;28;20505;-76
2021/11/05 09:54:03;;;;;;;7.43;4.83;;;9.50;99.90;;;;;;5003712;28;20202;-76
2021/11/05 09:56:29;;;;;;;6.40;4.20;;;9.50;99.90;;;;;;5007793;28;20468;-76
2021/11/05 09:58:55;;;;;;;9.17;5.50;;;9.60;99.90;;;;;;4997299;28;20249;-76
2021/11/05 10:01:20;;;;;;;8.40;5.03;;;9.60;99.90;;;;;;5002260;28;20191;-76
2021/11/05 10:03:46;;;;;;;6.53;4.10;;;9.70;99.90;;;;;;5008070;28;20190;-76
2021/11/05 10:06:13;;;;;;;5.77;5.17;;;9.90;99.90;;;;;;5004742;28;20199;-76
2021/11/05 10:08:40;;;;;;;4.70;3.77;;;10.00;99.90;;;;;;5002149;28;20266;-76
2021/11/05 10:11:23;;;;;;;4.03;3.27;;;10.00;99.90;;;;;;5005938;28;20847;-76
2021/11/05 10:13:50;;;;;;;5.73;3.17;;;10.10;99.90;;;;;;5000683;28;20425;-76
2021/11/05 10:16:19;;;;;;;8.07;3.77;;;10.20;99.90;;;;;;5005261;28;20528;-76
2021/11/05 10:19:06;;;;;;;2.90;2.70;;;10.30;99.90;;;;;;5000272;28;20527;-76
2021/11/05 10:21:43;;;;;;;6.47;2.67;;;10.40;99.90;;;;;;5003684;28;20458;-76
2021/11/05 10:24:17;;;;;;;3.73;2.50;;;10.40;99.90;;;;;;4997224;28;20934;-76
2021/11/05 10:26:47;;;;;;;3.23;2.40;;;10.40;99.90;;;;;;5015150;28;20460;-75
2021/11/05 10:29:32;;;;;;;4.73;2.63;;;10.40;99.90;;;;;;5011119;28;20772;-76
2021/11/05 10:32:03;;;;;;;5.43;2.80;;;10.40;99.90;;;;;;5007228;28;20512;-76
2021/11/05 10:34:49;;;;;;;5.80;2.53;;;10.40;99.90;;;;;;5005909;28;20429;-76
2021/11/05 10:37:29;;;;;;;4.63;1.90;;;10.60;99.90;;;;;;5003393;28;20429;-76
2021/11/05 10:39:57;;;;;;;1.73;1.50;;;10.70;99.90;;;;;;5003448;28;20417;-76
2021/11/05 10:42:37;;;;;;;4.10;1.97;;;10.70;99.90;;;;;;5006514;28;20414;-76
2021/11/05 10:45:23;;;;;;;1.73;1.63;;;10.90;99.90;;;;;;5005257;28;20461;-76
2021/11/05 10:47:55;;;;;;;1.40;1.10;;;10.80;99.90;;;;;;5001315;28;20465;-76
2021/11/05 10:50:45;;;;;;;1.87;1.37;;;10.80;99.90;;;;;;5002860;28;20433;-76
2021/11/05 10:53:16;;;;;;;9.07;1.40;;;10.90;99.90;;;;;;5001174;28;20436;-76
2021/11/05 10:56:04;;;;;;;4.70;1.50;;;11.00;99.90;;;;;;5004167;28;20861;-77
2021/11/05 10:58:42;;;;;;;1.83;1.47;;;11.00;99.90;;;;;;5004549;28;20491;-76
2021/11/05 11:01:14;;;;;;;3.13;1.60;;;11.10;99.90;;;;;;5003559;28;20497;-76
2021/11/05 11:04:02;;;;;;;1.40;1.10;;;11.20;99.90;;;;;;5009505;28;20421;-76
2021/11/05 11:06:30;;;;;;;1.60;1.50;;;11.30;99.90;;;;;;5010935;28;20448;-76
2021/11/05 11:08:58;;;;;;;2.97;1.20;;;11.40;99.90;;;;;;4998873;28;20469;-76
2021/11/05 11:11:39;;;;;;;1.10;1.10;;;11.50;99.90;;;;;;5007164;28;20429;-76
2021/11/05 11:14:07;;;;;;;1.40;1.00;;;11.40;99.90;;;;;;5019755;28;20477;-76
2021/11/05 11:16:45;;;;;;;1.47;1.37;;;11.40;99.90;;;;;;5009337;28;20440;-76
2021/11/05 11:19:19;;;;;;;1.90;1.50;;;11.30;99.90;;;;;;5008559;28;20433;-76
2021/11/05 11:21:56;;;;;;;3.23;1.27;;;11.30;99.90;;;;;;5014493;28;20420;-76
2021/11/05 11:24:24;;;;;;;1.13;1.10;;;11.30;99.90;;;;;;4991820;28;20432;-76
2021/11/05 11:26:51;;;;;;;3.70;2.30;;;11.30;99.90;;;;;;5024256;28;20950;-76
2021/11/05 11:29:21;;;;;;;1.73;1.30;;;11.30;99.90;;;;;;5010552;28;20448;-76
2021/11/05 11:31:47;;;;;;;4.20;1.33;;;11.30;99.90;;;;;;5009703;28;20504;-76
2021/11/05 11:34:14;;;;;;;3.93;1.70;;;11.40;99.90;;;;;;5008389;28;21004;-76
2021/11/05 11:36:47;;;;;;;1.00;1.00;;;11.40;99.90;;;;;;5008607;28;20447;-76
2021/11/05 11:39:15;;;;;;;3.30;1.33;;;11.30;99.90;;;;;;5018606;28;20436;-76
2021/11/05 11:41:42;;;;;;;2.30;0.80;;;11.30;99.90;;;;;;5008924;28;20433;-76
2021/11/05 11:44:09;;;;;;;1.30;1.20;;;11.30;99.90;;;;;;5006718;28;20506;-76
2021/11/05 11:46:59;;;;;;;6.53;1.60;;;11.30;99.90;;;;;;5006707;28;20465;-76
2021/11/05 11:49:42;;;;;;;1.53;0.93;;;11.30;99.90;;;;;;5005290;28;20481;-76
2021/11/05 11:52:08;;;;;;;0.80;0.80;;;11.40;99.90;;;;;;5004126;28;20426;-76
2021/11/05 11:54:37;;;;;;;1.63;1.23;;;11.40;99.90;;;;;;5004416;28;20911;-76
2021/11/05 11:57:19;;;;;;;2.63;0.90;;;11.60;99.90;;;;;;5007576;28;20515;-76
2021/11/05 12:00:01;;;;;;;0.80;0.60;;;11.60;99.90;;;;;;5001617;28;20474;-76
2021/11/05 12:02:35;;;;;;;2.13;0.83;;;11.60;99.90;;;;;;5010237;28;20434;-76
2021/11/05 12:05:24;;;;;;;5.30;1.10;;;11.70;99.90;;;;;;5006754;28;20790;-76
2021/11/05 12:08:22;;;;;;;1.10;1.00;;;11.70;99.90;;;;;;5005451;28;20444;-76
2021/11/05 12:11:14;;;;;;;2.27;0.70;;;11.60;99.90;;;;;;5007326;28;20429;-76
2021/11/05 12:13:41;;;;;;;3.53;1.00;;;11.60;99.90;;;;;;5008431;28;20513;-76
2021/11/05 12:16:11;;;;;;;4.17;0.90;;;11.60;99.90;;;;;;5001912;28;21084;-76
2021/11/05 12:19:00;;;;;;;1.10;0.93;;;11.50;99.90;;;;;;5008194;28;20930;-76
2021/11/05 12:21:35;;;;;;;2.40;0.90;;;11.40;99.90;;;;;;5003818;28;20444;-76
2021/11/05 12:24:13;;;;;;;1.13;0.83;;;11.40;99.90;;;;;;5008407;28;21033;-77
2021/11/05 12:26:47;;;;;;;1.10;0.80;;;11.30;99.90;;;;;;5002881;28;20534;-76
2021/11/05 12:29:32;;;;;;;3.53;0.93;;;11.30;99.90;;;;;;5015383;28;20433;-76
2021/11/05 12:32:22;;;;;;;4.13;0.90;;;11.30;99.90;;;;;;5005707;28;20464;-76
2021/11/05 12:35:17;;;;;;;0.90;0.67;;;11.20;99.90;;;;;;5004668;28;20481;-76
2021/11/05 12:37:55;;;;;;;2.00;1.10;;;11.30;99.90;;;;;;5004865;28;20441;-77
2021/11/05 12:40:20;;;;;;;2.00;0.80;;;11.40;99.90;;;;;;5018056;28;20937;-76
2021/11/05 12:42:52;;;;;;;4.03;2.53;;;11.40;99.90;;;;;;5009028;28;20434;-76
2021/11/05 12:45:19;;;;;;;2.17;1.13;;;11.50;99.90;;;;;;4997908;28;20222;-77
2021/11/05 12:47:59;;;;;;;3.20;0.60;;;11.60;99.90;;;;;;5010497;28;20444;-76